SDG075 LICJ-LIBR
Flight info
| Callsign | SDG075 |
|---|---|
| Flight time | 0h 56m |
| Altitude | 18000 |
| Route | ROSAS M742 AMANO KUTID P748 BUMOK M742 LUXIL L995 ROBOT |
| Aircraft | B738/M-SFG/C |
Departure
| Time | 2026-04-21 11:36 |
|---|---|
| Airport | Falcone–Borsellino Airport (LICJ) |
Arrival
| Time | 2026-04-21 12:33 |
|---|---|
| Airport | Brindisi Airport (LIBR) |
| Time | Latitude | Longitude | Altitude | Speed | Heading |
|---|---|---|---|---|---|
| 2026-04-21 11:20 | 38.18668 | 13.11197 | 64 ft | 0 kts | 67° |
| 2026-04-21 11:31 | 38.18669 | 13.11205 | 64 ft | 1 kts | 77° |
| 2026-04-21 11:31 | 38.18669 | 13.11212 | 58 ft | 3 kts | 89° |
| 2026-04-21 11:32 | 38.18634 | 13.11232 | 61 ft | 9 kts | 189° |
| 2026-04-21 11:32 | 38.18561 | 13.11192 | 62 ft | 3 kts | 174° |
| 2026-04-21 11:32 | 38.18524 | 13.11238 | 63 ft | 12 kts | 108° |
| 2026-04-21 11:32 | 38.18544 | 13.11338 | 62 ft | 12 kts | 67° |
| 2026-04-21 11:33 | 38.18574 | 13.11430 | 63 ft | 11 kts | 67° |
| 2026-04-21 11:33 | 38.18604 | 13.11521 | 63 ft | 11 kts | 68° |
| 2026-04-21 11:33 | 38.18615 | 13.11614 | 65 ft | 11 kts | 95° |
| 2026-04-21 11:33 | 38.18606 | 13.11705 | 62 ft | 10 kts | 97° |
| 2026-04-21 11:34 | 38.18605 | 13.11713 | 62 ft | 0 kts | 97° |
| 2026-04-21 11:35 | 38.18604 | 13.11718 | 63 ft | 7 kts | 97° |
| 2026-04-21 11:35 | 38.18572 | 13.11851 | 68 ft | 11 kts | 148° |
| 2026-04-21 11:35 | 38.18501 | 13.11830 | 68 ft | 2 kts | 239° |
| 2026-04-21 11:36 | 38.18499 | 13.11822 | 70 ft | 3 kts | 245° |
| 2026-04-21 11:36 | 38.18357 | 13.11424 | 65 ft | 104 kts | 246° |
| 2026-04-21 11:36 | 38.17949 | 13.10203 | 176 ft | 186 kts | 248° |
| 2026-04-21 11:36 | 38.17477 | 13.08607 | 1338 ft | 185 kts | 252° |
| 2026-04-21 11:37 | 38.17119 | 13.07125 | 3048 ft | 179 kts | 246° |
| 2026-04-21 11:37 | 38.16518 | 13.05618 | 3715 ft | 208 kts | 241° |
| 2026-04-21 11:37 | 38.15837 | 13.03851 | 3995 ft | 241 kts | 245° |
| 2026-04-21 11:37 | 38.15492 | 13.01679 | 3989 ft | 263 kts | 275° |
| 2026-04-21 11:38 | 38.16180 | 12.99540 | 4016 ft | 268 kts | 306° |
| 2026-04-21 11:38 | 38.17399 | 12.97735 | 4010 ft | 269 kts | 309° |
| 2026-04-21 11:38 | 38.18576 | 12.95887 | 4009 ft | 269 kts | 306° |
| 2026-04-21 11:38 | 38.19719 | 12.93970 | 4013 ft | 269 kts | 305° |
| 2026-04-21 11:39 | 38.20812 | 12.92084 | 4012 ft | 269 kts | 304° |
| 2026-04-21 11:39 | 38.21925 | 12.90134 | 4011 ft | 269 kts | 304° |
| 2026-04-21 11:39 | 38.23007 | 12.88223 | 4072 ft | 271 kts | 304° |
| 2026-04-21 11:39 | 38.24111 | 12.86261 | 4880 ft | 272 kts | 304° |
| 2026-04-21 11:40 | 38.25200 | 12.84321 | 6218 ft | 269 kts | 304° |
| 2026-04-21 11:40 | 38.26289 | 12.82376 | 7338 ft | 271 kts | 304° |
| 2026-04-21 11:40 | 38.27389 | 12.80410 | 8458 ft | 273 kts | 304° |
| 2026-04-21 11:40 | 38.28567 | 12.78502 | 9569 ft | 277 kts | 316° |
| 2026-04-21 11:41 | 38.30263 | 12.77291 | 10494 ft | 289 kts | 337° |
| 2026-04-21 11:41 | 38.32223 | 12.76303 | 10819 ft | 318 kts | 335° |
| 2026-04-21 11:41 | 38.34371 | 12.75210 | 11064 ft | 347 kts | 343° |
| 2026-04-21 11:41 | 38.36834 | 12.75156 | 11732 ft | 366 kts | 11° |
| 2026-04-21 11:42 | 38.39142 | 12.76586 | 12650 ft | 378 kts | 37° |
| 2026-04-21 11:42 | 38.40873 | 12.79146 | 13578 ft | 386 kts | 53° |
| 2026-04-21 11:42 | 38.42412 | 12.81987 | 14326 ft | 393 kts | 52° |
| 2026-04-21 11:42 | 38.44029 | 12.84830 | 15104 ft | 398 kts | 51° |
| 2026-04-21 11:43 | 38.45688 | 12.87668 | 15945 ft | 401 kts | 50° |
| 2026-04-21 11:43 | 38.47379 | 12.90519 | 16750 ft | 405 kts | 50° |
| 2026-04-21 11:43 | 38.49096 | 12.93390 | 17513 ft | 408 kts | 49° |
| 2026-04-21 11:43 | 38.50826 | 12.96278 | 17900 ft | 410 kts | 49° |
| 2026-04-21 11:44 | 38.52583 | 12.99206 | 17971 ft | 424 kts | 49° |
| 2026-04-21 11:44 | 38.54413 | 13.02254 | 17983 ft | 440 kts | 49° |
| 2026-04-21 11:44 | 38.56295 | 13.05398 | 17977 ft | 449 kts | 50° |
| 2026-04-21 11:44 | 38.58187 | 13.08568 | 17974 ft | 448 kts | 50° |
| 2026-04-21 11:45 | 38.60074 | 13.11737 | 17958 ft | 447 kts | 50° |
| 2026-04-21 11:45 | 38.61955 | 13.14899 | 17965 ft | 446 kts | 50° |
| 2026-04-21 11:45 | 38.63833 | 13.18058 | 17970 ft | 446 kts | 50° |
| 2026-04-21 11:45 | 38.65712 | 13.21219 | 17974 ft | 446 kts | 50° |
| 2026-04-21 11:46 | 38.67590 | 13.24381 | 17973 ft | 446 kts | 50° |
| 2026-04-21 11:46 | 38.69468 | 13.27546 | 17973 ft | 447 kts | 50° |
| 2026-04-21 11:46 | 38.71345 | 13.30713 | 17968 ft | 447 kts | 50° |
| 2026-04-21 11:46 | 38.73223 | 13.33884 | 17976 ft | 447 kts | 50° |
| 2026-04-21 11:47 | 38.75100 | 13.37057 | 17970 ft | 447 kts | 50° |
| 2026-04-21 11:47 | 38.76979 | 13.40237 | 17969 ft | 447 kts | 50° |
| 2026-04-21 11:47 | 38.78851 | 13.43409 | 17971 ft | 447 kts | 50° |
| 2026-04-21 11:47 | 38.80727 | 13.46590 | 17951 ft | 447 kts | 50° |
| 2026-04-21 11:48 | 38.82602 | 13.49771 | 17977 ft | 447 kts | 50° |
| 2026-04-21 11:48 | 38.84569 | 13.52837 | 17954 ft | 443 kts | 40° |
| 2026-04-21 11:48 | 38.87090 | 13.54983 | 17983 ft | 433 kts | 19° |
| 2026-04-21 11:48 | 38.89938 | 13.56160 | 17984 ft | 430 kts | 12° |
| 2026-04-21 11:49 | 38.91837 | 13.56902 | 17967 ft | 431 kts | 14° |
| 2026-04-21 11:49 | 38.94676 | 13.58131 | 17966 ft | 431 kts | 15° |
| 2026-04-21 11:49 | 38.97511 | 13.59421 | 17966 ft | 432 kts | 16° |
| 2026-04-21 11:49 | 39.00335 | 13.60721 | 17975 ft | 432 kts | 16° |
| 2026-04-21 11:50 | 39.03164 | 13.62019 | 17975 ft | 432 kts | 16° |
| 2026-04-21 11:50 | 39.05995 | 13.63309 | 17980 ft | 432 kts | 16° |
| 2026-04-21 11:50 | 39.08825 | 13.64590 | 17973 ft | 431 kts | 16° |
| 2026-04-21 11:50 | 39.11658 | 13.65869 | 17978 ft | 431 kts | 16° |
| 2026-04-21 11:51 | 39.14494 | 13.67147 | 17975 ft | 431 kts | 16° |
| 2026-04-21 11:51 | 39.17324 | 13.68422 | 17970 ft | 431 kts | 16° |
| 2026-04-21 11:51 | 39.20156 | 13.69699 | 17970 ft | 431 kts | 16° |
| 2026-04-21 11:51 | 39.22986 | 13.70976 | 17972 ft | 431 kts | 16° |
| 2026-04-21 11:52 | 39.25817 | 13.72255 | 17981 ft | 431 kts | 16° |
| 2026-04-21 11:52 | 39.28648 | 13.73536 | 17977 ft | 431 kts | 16° |
| 2026-04-21 11:52 | 39.31481 | 13.74819 | 17976 ft | 431 kts | 16° |
| 2026-04-21 11:52 | 39.34311 | 13.76100 | 17980 ft | 431 kts | 16° |
| 2026-04-21 11:53 | 39.37138 | 13.77382 | 17980 ft | 431 kts | 16° |
| 2026-04-21 11:53 | 39.39946 | 13.78762 | 17972 ft | 433 kts | 21° |
| 2026-04-21 11:53 | 39.42558 | 13.80735 | 17976 ft | 438 kts | 32° |
| 2026-04-21 11:53 | 39.44900 | 13.83287 | 17978 ft | 443 kts | 42° |
| 2026-04-21 11:54 | 39.46938 | 13.86210 | 17986 ft | 444 kts | 45° |
| 2026-04-21 11:54 | 39.49003 | 13.89180 | 17978 ft | 444 kts | 44° |
| 2026-04-21 11:54 | 39.51097 | 13.92117 | 17971 ft | 444 kts | 44° |
| 2026-04-21 11:54 | 39.53202 | 13.95040 | 17975 ft | 444 kts | 44° |
| 2026-04-21 11:55 | 39.55312 | 13.97961 | 17977 ft | 444 kts | 44° |
| 2026-04-21 11:55 | 39.57419 | 14.00882 | 17976 ft | 443 kts | 44° |
| 2026-04-21 11:55 | 39.59522 | 14.03803 | 17976 ft | 443 kts | 44° |
| 2026-04-21 11:55 | 39.61626 | 14.06734 | 17975 ft | 443 kts | 44° |
| 2026-04-21 11:56 | 39.63727 | 14.09665 | 17980 ft | 443 kts | 44° |
| 2026-04-21 11:56 | 39.65824 | 14.12596 | 17976 ft | 443 kts | 44° |
| 2026-04-21 11:56 | 39.67921 | 14.15533 | 17976 ft | 443 kts | 44° |
| 2026-04-21 11:56 | 39.70015 | 14.18468 | 17976 ft | 443 kts | 44° |
| 2026-04-21 11:57 | 39.72113 | 14.21410 | 17977 ft | 443 kts | 44° |
| 2026-04-21 11:57 | 39.74208 | 14.24352 | 17975 ft | 443 kts | 44° |
| 2026-04-21 11:57 | 39.76299 | 14.27292 | 17975 ft | 443 kts | 44° |
| 2026-04-21 11:57 | 39.78392 | 14.30237 | 17981 ft | 443 kts | 44° |
| 2026-04-21 11:58 | 39.80487 | 14.33187 | 17979 ft | 443 kts | 44° |
| 2026-04-21 11:58 | 39.82579 | 14.36136 | 17977 ft | 443 kts | 44° |
| 2026-04-21 11:58 | 39.84669 | 14.39085 | 17977 ft | 443 kts | 44° |
| 2026-04-21 11:58 | 39.86759 | 14.42038 | 17977 ft | 444 kts | 44° |
| 2026-04-21 11:59 | 39.88849 | 14.44992 | 17981 ft | 443 kts | 44° |
| 2026-04-21 11:59 | 39.90940 | 14.47951 | 17979 ft | 443 kts | 44° |
| 2026-04-21 11:59 | 39.93026 | 14.50906 | 17981 ft | 444 kts | 44° |
| 2026-04-21 11:59 | 39.95115 | 14.53868 | 17978 ft | 444 kts | 44° |
| 2026-04-21 12:00 | 39.97203 | 14.56832 | 17980 ft | 443 kts | 44° |
| 2026-04-21 12:00 | 39.99287 | 14.59792 | 17983 ft | 444 kts | 44° |
| 2026-04-21 12:00 | 40.01372 | 14.62758 | 17981 ft | 444 kts | 44° |
| 2026-04-21 12:00 | 40.03432 | 14.65690 | 17978 ft | 444 kts | 44° |
| 2026-04-21 12:01 | 40.05518 | 14.68663 | 17977 ft | 444 kts | 44° |
| 2026-04-21 12:01 | 40.07600 | 14.71631 | 17978 ft | 444 kts | 44° |
| 2026-04-21 12:01 | 40.09682 | 14.74604 | 17968 ft | 444 kts | 44° |
| 2026-04-21 12:01 | 40.11768 | 14.77584 | 17969 ft | 443 kts | 44° |
| 2026-04-21 12:02 | 40.13846 | 14.80558 | 17978 ft | 443 kts | 44° |
| 2026-04-21 12:02 | 40.18007 | 14.86518 | 17974 ft | 444 kts | 44° |
| 2026-04-21 12:02 | 40.20085 | 14.89500 | 17975 ft | 444 kts | 44° |
| 2026-04-21 12:03 | 40.22165 | 14.92487 | 17970 ft | 444 kts | 44° |
| 2026-04-21 12:03 | 40.24244 | 14.95476 | 17983 ft | 444 kts | 44° |
| 2026-04-21 12:03 | 40.26327 | 14.98473 | 17975 ft | 445 kts | 44° |
| 2026-04-21 12:03 | 40.28410 | 15.01473 | 17984 ft | 445 kts | 44° |
| 2026-04-21 12:04 | 40.30493 | 15.04477 | 17984 ft | 446 kts | 44° |
| 2026-04-21 12:04 | 40.32577 | 15.07485 | 17969 ft | 446 kts | 44° |
| 2026-04-21 12:04 | 40.34660 | 15.10494 | 17973 ft | 446 kts | 44° |
| 2026-04-21 12:04 | 40.36743 | 15.13507 | 17967 ft | 446 kts | 44° |
| 2026-04-21 12:05 | 40.38824 | 15.16520 | 17976 ft | 446 kts | 44° |
| 2026-04-21 12:05 | 40.40905 | 15.19535 | 17968 ft | 446 kts | 44° |
| 2026-04-21 12:05 | 40.42988 | 15.22539 | 17973 ft | 445 kts | 43° |
| 2026-04-21 12:05 | 40.45106 | 15.25512 | 17979 ft | 445 kts | 43° |
| 2026-04-21 12:06 | 40.47234 | 15.28463 | 17974 ft | 445 kts | 43° |
| 2026-04-21 12:06 | 40.49365 | 15.31416 | 17964 ft | 446 kts | 43° |
| 2026-04-21 12:06 | 40.51496 | 15.34378 | 17952 ft | 446 kts | 43° |
| 2026-04-21 12:06 | 40.53619 | 15.37342 | 17955 ft | 446 kts | 43° |
| 2026-04-21 12:07 | 40.55715 | 15.40277 | 17924 ft | 446 kts | 43° |
| 2026-04-21 12:07 | 40.57836 | 15.43252 | 17958 ft | 446 kts | 43° |
| 2026-04-21 12:07 | 40.59959 | 15.46233 | 17946 ft | 447 kts | 43° |
| 2026-04-21 12:07 | 40.61968 | 15.49372 | 17951 ft | 450 kts | 49° |
| 2026-04-21 12:08 | 40.63788 | 15.52735 | 17957 ft | 452 kts | 52° |
| 2026-04-21 12:08 | 40.65563 | 15.56158 | 17946 ft | 452 kts | 51° |
| 2026-04-21 12:08 | 40.67363 | 15.59548 | 17949 ft | 452 kts | 51° |
| 2026-04-21 12:08 | 40.69180 | 15.62934 | 17947 ft | 453 kts | 52° |
| 2026-04-21 12:09 | 40.70702 | 15.66595 | 17939 ft | 459 kts | 64° |
| 2026-04-21 12:09 | 40.71721 | 15.70598 | 17948 ft | 463 kts | 73° |
| 2026-04-21 12:09 | 40.72235 | 15.74800 | 17941 ft | 466 kts | 82° |
| 2026-04-21 12:09 | 40.72537 | 15.79050 | 17931 ft | 466 kts | 82° |
| 2026-04-21 12:10 | 40.72887 | 15.83292 | 17939 ft | 465 kts | 81° |
| 2026-04-21 12:10 | 40.73266 | 15.87528 | 17934 ft | 466 kts | 81° |
| 2026-04-21 12:10 | 40.73657 | 15.91770 | 17933 ft | 466 kts | 81° |
| 2026-04-21 12:10 | 40.74049 | 15.96007 | 17922 ft | 466 kts | 81° |
| 2026-04-21 12:11 | 40.74440 | 16.00254 | 17926 ft | 466 kts | 81° |
| 2026-04-21 12:11 | 40.74825 | 16.04498 | 17938 ft | 466 kts | 81° |
| 2026-04-21 12:11 | 40.75207 | 16.08737 | 17922 ft | 466 kts | 81° |
| 2026-04-21 12:11 | 40.75586 | 16.12990 | 17922 ft | 466 kts | 81° |
| 2026-04-21 12:12 | 40.75962 | 16.17235 | 17930 ft | 466 kts | 81° |
| 2026-04-21 12:12 | 40.76337 | 16.21486 | 17934 ft | 466 kts | 81° |
| 2026-04-21 12:12 | 40.76710 | 16.25733 | 17929 ft | 467 kts | 81° |
| 2026-04-21 12:12 | 40.77081 | 16.29987 | 17910 ft | 466 kts | 81° |
| 2026-04-21 12:13 | 40.77450 | 16.34229 | 17929 ft | 466 kts | 81° |
| 2026-04-21 12:13 | 40.77818 | 16.38471 | 17921 ft | 466 kts | 81° |
| 2026-04-21 12:13 | 40.78185 | 16.42719 | 17923 ft | 466 kts | 81° |
| 2026-04-21 12:13 | 40.78550 | 16.46970 | 17915 ft | 466 kts | 81° |
| 2026-04-21 12:14 | 40.78913 | 16.51211 | 17926 ft | 465 kts | 81° |
| 2026-04-21 12:14 | 40.79274 | 16.55455 | 17931 ft | 465 kts | 81° |
| 2026-04-21 12:14 | 40.79634 | 16.59701 | 17925 ft | 466 kts | 81° |
| 2026-04-21 12:14 | 40.79988 | 16.63897 | 17925 ft | 466 kts | 81° |
| 2026-04-21 12:15 | 40.80345 | 16.68142 | 17930 ft | 466 kts | 82° |
| 2026-04-21 12:15 | 40.80700 | 16.72385 | 17938 ft | 466 kts | 82° |
| 2026-04-21 12:15 | 40.81054 | 16.76635 | 17938 ft | 466 kts | 82° |
| 2026-04-21 12:15 | 40.81407 | 16.80889 | 17943 ft | 466 kts | 82° |
| 2026-04-21 12:16 | 40.81699 | 16.85147 | 17938 ft | 467 kts | 86° |
| 2026-04-21 12:16 | 40.81527 | 16.89446 | 17942 ft | 469 kts | 97° |
| 2026-04-21 12:16 | 40.80815 | 16.93646 | 17947 ft | 470 kts | 105° |
| 2026-04-21 12:16 | 40.79964 | 16.97802 | 17943 ft | 470 kts | 104° |
| 2026-04-21 12:17 | 40.79174 | 17.01988 | 17937 ft | 470 kts | 103° |
| 2026-04-21 12:17 | 40.78416 | 17.06182 | 17933 ft | 468 kts | 103° |
| 2026-04-21 12:17 | 40.77679 | 17.10311 | 17929 ft | 457 kts | 103° |
| 2026-04-21 12:17 | 40.76952 | 17.14367 | 17934 ft | 453 kts | 103° |
| 2026-04-21 12:18 | 40.76220 | 17.18423 | 17948 ft | 455 kts | 103° |
| 2026-04-21 12:18 | 40.75481 | 17.22484 | 17945 ft | 456 kts | 103° |
| 2026-04-21 12:18 | 40.74738 | 17.26537 | 17932 ft | 450 kts | 103° |
| 2026-04-21 12:18 | 40.74018 | 17.30452 | 17919 ft | 429 kts | 103° |
| 2026-04-21 12:19 | 40.73331 | 17.34181 | 17922 ft | 409 kts | 103° |
| 2026-04-21 12:19 | 40.72672 | 17.37756 | 17918 ft | 393 kts | 103° |
| 2026-04-21 12:19 | 40.72038 | 17.41186 | 17915 ft | 377 kts | 103° |
| 2026-04-21 12:19 | 40.71431 | 17.44465 | 17926 ft | 361 kts | 103° |
| 2026-04-21 12:20 | 40.70861 | 17.47579 | 17917 ft | 346 kts | 102° |
| 2026-04-21 12:20 | 40.70470 | 17.50638 | 17925 ft | 332 kts | 96° |
| 2026-04-21 12:20 | 40.70195 | 17.53609 | 17822 ft | 323 kts | 95° |
| 2026-04-21 12:20 | 40.69935 | 17.56531 | 17562 ft | 321 kts | 96° |
| 2026-04-21 12:21 | 40.69652 | 17.59494 | 16882 ft | 336 kts | 96° |
| 2026-04-21 12:21 | 40.69337 | 17.62597 | 16277 ft | 345 kts | 97° |
| 2026-04-21 12:21 | 40.69005 | 17.65766 | 15587 ft | 354 kts | 97° |
| 2026-04-21 12:21 | 40.68660 | 17.69019 | 14859 ft | 363 kts | 97° |
| 2026-04-21 12:22 | 40.68306 | 17.72348 | 14148 ft | 370 kts | 97° |
| 2026-04-21 12:22 | 40.67946 | 17.75729 | 13403 ft | 375 kts | 98° |
| 2026-04-21 12:22 | 40.67581 | 17.79149 | 12636 ft | 379 kts | 98° |
| 2026-04-21 12:22 | 40.67212 | 17.82596 | 11851 ft | 382 kts | 98° |
| 2026-04-21 12:23 | 40.66840 | 17.86077 | 11099 ft | 384 kts | 98° |
| 2026-04-21 12:23 | 40.66466 | 17.89556 | 10365 ft | 384 kts | 98° |
| 2026-04-21 12:23 | 40.66091 | 17.93040 | 9623 ft | 384 kts | 98° |
| 2026-04-21 12:23 | 40.65553 | 17.96467 | 8825 ft | 382 kts | 111° |
| 2026-04-21 12:24 | 40.64293 | 17.99523 | 8116 ft | 379 kts | 126° |
| 2026-04-21 12:24 | 40.62724 | 18.02316 | 7381 ft | 380 kts | 129° |
| 2026-04-21 12:24 | 40.61135 | 18.05059 | 6585 ft | 369 kts | 128° |
| 2026-04-21 12:24 | 40.59656 | 18.07735 | 5828 ft | 353 kts | 127° |
| 2026-04-21 12:25 | 40.58284 | 18.10338 | 5143 ft | 339 kts | 125° |
| 2026-04-21 12:25 | 40.57054 | 18.12750 | 5157 ft | 306 kts | 125° |
| 2026-04-21 12:25 | 40.55928 | 18.14984 | 5124 ft | 280 kts | 125° |
| 2026-04-21 12:25 | 40.54883 | 18.17062 | 5076 ft | 259 kts | 126° |
| 2026-04-21 12:26 | 40.53927 | 18.18959 | 4942 ft | 248 kts | 126° |
| 2026-04-21 12:26 | 40.52753 | 18.20560 | 4599 ft | 240 kts | 154° |
| 2026-04-21 12:26 | 40.51187 | 18.20986 | 4367 ft | 228 kts | 189° |
| 2026-04-21 12:26 | 40.49736 | 18.20297 | 4179 ft | 219 kts | 216° |
| 2026-04-21 12:27 | 40.48703 | 18.18896 | 3994 ft | 213 kts | 239° |
| 2026-04-21 12:27 | 40.48131 | 18.17115 | 3772 ft | 212 kts | 257° |
| 2026-04-21 12:27 | 40.48281 | 18.15230 | 3625 ft | 210 kts | 298° |
| 2026-04-21 12:27 | 40.49338 | 18.14038 | 3617 ft | 197 kts | 333° |
| 2026-04-21 12:28 | 40.50537 | 18.13232 | 3434 ft | 192 kts | 322° |
| 2026-04-21 12:28 | 40.51541 | 18.12127 | 3261 ft | 185 kts | 316° |
| 2026-04-21 12:28 | 40.52501 | 18.11028 | 3067 ft | 181 kts | 316° |
| 2026-04-21 12:28 | 40.53425 | 18.09928 | 2888 ft | 178 kts | 315° |
| 2026-04-21 12:29 | 40.54321 | 18.08834 | 2703 ft | 174 kts | 314° |
| 2026-04-21 12:29 | 40.55191 | 18.07766 | 2527 ft | 168 kts | 314° |
| 2026-04-21 12:29 | 40.56030 | 18.06737 | 2372 ft | 161 kts | 314° |
| 2026-04-21 12:29 | 40.56810 | 18.05776 | 2215 ft | 147 kts | 315° |
| 2026-04-21 12:30 | 40.57531 | 18.04891 | 2120 ft | 138 kts | 315° |
| 2026-04-21 12:30 | 40.58225 | 18.04039 | 2034 ft | 137 kts | 315° |
| 2026-04-21 12:30 | 40.58934 | 18.03166 | 1850 ft | 140 kts | 315° |
| 2026-04-21 12:30 | 40.59635 | 18.02305 | 1667 ft | 135 kts | 315° |
| 2026-04-21 12:31 | 40.60317 | 18.01467 | 1494 ft | 135 kts | 315° |
| 2026-04-21 12:31 | 40.61010 | 18.00616 | 1305 ft | 136 kts | 316° |
| 2026-04-21 12:31 | 40.61703 | 17.99766 | 1121 ft | 136 kts | 315° |
| 2026-04-21 12:31 | 40.62392 | 17.98917 | 953 ft | 137 kts | 316° |
| 2026-04-21 12:32 | 40.63079 | 17.98074 | 776 ft | 136 kts | 317° |
| 2026-04-21 12:32 | 40.63770 | 17.97223 | 586 ft | 135 kts | 318° |
| 2026-04-21 12:32 | 40.64455 | 17.96385 | 406 ft | 134 kts | 319° |
| 2026-04-21 12:32 | 40.65129 | 17.95558 | 233 ft | 133 kts | 318° |
| 2026-04-21 12:33 | 40.65807 | 17.94727 | 61 ft | 134 kts | 317° |
| 2026-04-21 12:33 | 40.66380 | 17.94018 | 35 ft | 81 kts | 316° |
| 2026-04-21 12:33 | 40.66592 | 17.93760 | 34 ft | 27 kts | 319° |
| 2026-04-21 12:33 | 40.66727 | 17.93638 | 34 ft | 11 kts | 5° |
| 2026-04-21 12:34 | 40.66787 | 17.93697 | 35 ft | 11 kts | 46° |
| 2026-04-21 12:34 | 40.66812 | 17.93783 | 35 ft | 11 kts | 105° |
| 2026-04-21 12:34 | 40.66757 | 17.93860 | 35 ft | 15 kts | 138° |
| 2026-04-21 12:34 | 40.66668 | 17.93966 | 35 ft | 20 kts | 138° |
| 2026-04-21 12:35 | 40.66557 | 17.94099 | 35 ft | 24 kts | 137° |
| 2026-04-21 12:35 | 40.66427 | 17.94254 | 34 ft | 25 kts | 137° |
| 2026-04-21 12:35 | 40.66307 | 17.94402 | 34 ft | 23 kts | 135° |
| 2026-04-21 12:35 | 40.66195 | 17.94546 | 33 ft | 22 kts | 135° |
| 2026-04-21 12:36 | 40.66081 | 17.94675 | 32 ft | 21 kts | 157° |
| 2026-04-21 12:36 | 40.65966 | 17.94594 | 32 ft | 20 kts | 231° |
| 2026-04-21 12:36 | 40.65884 | 17.94449 | 33 ft | 19 kts | 234° |
| 2026-04-21 12:36 | 40.65813 | 17.94308 | 35 ft | 10 kts | 261° |
| 2026-04-21 12:37 | 40.65855 | 17.94242 | 35 ft | 10 kts | 322° |
| 2026-04-21 12:37 | 40.65877 | 17.94220 | 35 ft | 0 kts | 322° |